Time;durP1;ratioP1;P1;durP2;ratioP2;P2;SDS_P1;SDS_P2;PMS_P1;PMS_P2;Temp;Humidity;BMP_temperature;BMP_pressure;BME280_temperature;BME280_humidity;BME280_pressure;Samples;Min_cycle;Max_cycle;Signal;HPM_P1;HPM_P2
2023/04/28 00:01:09;;;;;;;;;;;15.70;67.10;;;15.98;44.68;98495.13;4913151;28;114312;-84
2023/04/28 00:03:38;;;;;;;;;;;15.70;67.10;;;15.98;44.54;98497.91;4917073;28;113638;-84
2023/04/28 00:06:08;;;;;;;;;;;15.60;67.00;;;15.98;44.52;98492.31;4911839;28;124322;-84
2023/04/28 00:08:34;;;;;;;;;;;15.60;66.90;;;15.96;44.60;98498.28;4912045;28;123867;-85
2023/04/28 00:11:05;;;;;;;;;;;15.60;66.90;;;15.97;44.19;98487.94;4897446;28;113861;-85
2023/04/28 00:13:31;;;;;;;;;;;15.60;66.80;;;15.97;44.48;98483.16;4909303;28;113289;-82
2023/04/28 00:16:06;;;;;;;;;;;15.60;66.90;;;15.97;44.53;98485.16;4910649;28;124043;-85
2023/04/28 00:18:35;;;;;;;;;;;15.60;67.00;;;15.96;44.49;98475.16;4914776;28;123363;-83
2023/04/28 00:21:08;;;;;;;;;;;15.70;67.30;;;15.97;44.73;98485.16;4910660;28;115377;-86
2023/04/28 00:23:47;;;;;;;;;;;15.60;67.40;;;15.95;44.73;98476.31;4911612;28;114800;-85
2023/04/28 00:26:17;;;;;;;;;;;15.60;67.50;;;15.96;44.92;98466.78;4898969;28;124857;-82
2023/04/28 00:28:43;;;;;;;;;;;15.60;67.60;;;15.95;45.10;98468.78;4911469;28;123964;-82
2023/04/28 00:31:18;;;;;;;;;;;15.60;67.60;;;15.95;45.09;98465.19;4911253;28;114776;-84
2023/04/28 00:33:53;;;;;;;;;;;15.60;67.70;;;15.94;45.11;98469.94;4911332;28;113783;-85
2023/04/28 00:36:21;;;;;;;;;;;15.60;68.20;;;15.93;45.09;98459.16;4910821;28;123754;-84
2023/04/28 00:38:47;;;;;;;;;;;15.60;68.00;;;15.94;45.09;98464.38;4902625;28;123971;-85
2023/04/28 00:41:20;;;;;;;;;;;15.60;68.00;;;15.94;45.22;98460.78;4908376;28;114656;-85
2023/04/28 00:43:53;;;;;;;;;;;15.60;68.10;;;15.95;45.31;98459.59;4913051;28;112812;-84
2023/04/28 00:46:24;;;;;;;;;;;15.60;68.20;;;15.93;45.33;98454.38;4897558;28;124383;-86
2023/04/28 00:48:51;;;;;;;;;;;15.60;68.30;;;15.93;45.32;98451.59;4902959;28;123906;-84
2023/04/28 00:51:27;;;;;;;;;;;15.60;68.40;;;15.93;45.19;98457.16;4890642;28;115060;-85
2023/04/28 00:54:05;;;;;;;;;;;15.60;68.50;;;15.93;45.19;98448.81;4903113;28;112916;-84
2023/04/28 00:56:36;;;;;;;;;;;15.60;68.60;;;15.92;45.40;98452.78;4911250;28;123510;-85
2023/04/28 00:59:05;;;;;;;;;;;15.60;68.70;;;15.93;45.42;98453.56;4903395;28;123041;-86
2023/04/28 01:01:35;;;;;;;;;;;15.50;68.70;;;15.92;45.90;98454.75;4909808;28;115035;-86
2023/04/28 01:04:01;;;;;;;;;;;15.50;68.90;;;15.92;45.85;98449.19;4899029;28;113725;-84
2023/04/28 01:06:34;;;;;;;;;;;15.60;69.00;;;15.91;46.10;98442.81;4913658;28;124013;-86
2023/04/28 01:09:01;;;;;;;;;;;15.60;69.20;;;15.90;45.78;98446.75;4883021;28;122863;-85
2023/04/28 01:11:28;;;;;;;;;;;15.60;69.20;;;15.90;45.65;98436.44;4910388;28;115998;-84
2023/04/28 01:14:00;;;;;;;;;;;15.60;69.40;;;15.93;46.13;98445.22;4910725;28;115180;-85
2023/04/28 01:16:27;;;;;;;;;;;15.60;69.60;;;15.92;46.13;98440.81;4911524;28;123803;-85
2023/04/28 01:18:57;;;;;;;;;;;15.50;69.50;;;15.89;46.11;98437.56;4909351;28;125261;-84
2023/04/28 01:21:36;;;;;;;;;;;15.50;69.60;;;15.90;46.03;98430.03;4896805;28;113618;-86
2023/04/28 01:24:05;;;;;;;;;;;15.60;69.80;;;15.87;45.97;98422.38;4911780;28;113207;-84
2023/04/28 01:26:33;;;;;;;;;;;15.60;69.80;;;15.87;46.04;98423.19;4913053;28;124047;-85
2023/04/28 01:29:00;;;;;;;;;;;15.50;69.80;;;15.89;45.80;98431.19;4913543;28;124352;-84
2023/04/28 01:31:26;;;;;;;;;;;15.50;69.90;;;15.85;46.03;98411.59;4905011;28;112813;-82
2023/04/28 01:33:52;;;;;;;;;;;15.50;70.60;;;15.87;46.11;98414.03;4907779;28;112989;-84
2023/04/28 01:36:22;;;;;;;;;;;15.60;70.10;;;15.88;46.20;98416.47;4907774;28;124802;-85
2023/04/28 01:38:49;;;;;;;;;;;15.50;70.20;;;15.88;46.20;98416.47;4908531;28;123829;-82
2023/04/28 01:41:16;;;;;;;;;;;15.50;70.30;;;15.85;46.25;98400.47;4925075;28;114241;-83
2023/04/28 01:43:45;;;;;;;;;;;15.50;70.30;;;15.87;46.28;98406.47;4910409;28;113646;-85
2023/04/28 01:46:14;;;;;;;;;;;15.50;70.40;;;15.86;46.39;98410.44;4900053;28;124137;-81
2023/04/28 01:48:40;;;;;;;;;;;15.50;70.50;;;15.84;46.66;98409.97;4904671;28;124186;-83
2023/04/28 01:51:06;;;;;;;;;;;15.50;70.40;;;15.86;46.44;98409.63;4902321;28;114306;-84
2023/04/28 01:53:33;;;;;;;;;;;15.50;70.50;;;15.86;46.06;98390.94;4900419;28;113671;-81
2023/04/28 01:56:20;;;;;;;;;;;15.50;70.50;;;15.87;46.27;98398.09;4916394;28;123892;-84
2023/04/28 01:58:52;;;;;;;;;;;15.50;70.60;;;15.85;46.37;98399.63;4913853;28;124100;-83
2023/04/28 02:01:18;;;;;;;;;;;16.00;71.10;;;15.85;46.26;98394.91;4913232;28;115244;-85
2023/04/28 02:03:44;;;;;;;;;;;15.50;70.70;;;15.85;46.44;98394.91;4913993;28;115104;-85
2023/04/28 02:06:14;;;;;;;;;;;15.50;70.80;;;15.86;46.77;98392.91;4903045;28;124156;-86
2023/04/28 02:08:42;;;;;;;;;;;15.50;70.90;;;15.88;46.46;98398.94;4912501;28;124266;-87
2023/04/28 02:11:13;;;;;;;;;;;15.50;71.10;;;15.87;46.72;98381.41;4913771;28;114619;-85
2023/04/28 02:13:41;;;;;;;;;;;15.50;71.20;;;15.88;46.76;98382.22;4914644;28;113031;-85
2023/04/28 02:16:07;;;;;;;;;;;15.50;71.20;;;15.87;46.77;98375.81;4912929;28;124158;-82
2023/04/28 02:18:37;;;;;;;;;;;15.50;71.30;;;15.87;46.67;98381.41;4913350;28;124369;-86
2023/04/28 02:21:09;;;;;;;;;;;15.50;71.40;;;15.87;46.49;98375.81;4913998;28;115787;-84
2023/04/28 02:23:39;;;;;;;;;;;15.50;72.10;;;15.86;46.80;98379.78;4913380;28;114372;-85
2023/04/28 02:26:05;;;;;;;;;;;15.50;71.50;;;15.87;46.75;98386.16;4914291;28;124250;-85
2023/04/28 02:28:32;;;;;;;;;;;16.20;72.80;;;15.84;46.63;98379.31;4913725;28;123864;-83
2023/04/28 02:31:13;;;;;;;;;;;15.50;71.50;;;15.80;46.70;98381.22;4914484;28;114606;-85
2023/04/28 02:33:41;;;;;;;;;;;15.50;71.40;;;15.80;46.58;98375.66;4911060;28;113536;-83
2023/04/28 02:36:09;;;;;;;;;;;15.40;71.30;;;15.80;46.91;98372.88;4914464;28;124223;-83
2023/04/28 02:38:40;;;;;;;;;;;15.40;71.50;;;15.80;46.75;98360.91;4913763;28;123327;-84
2023/04/28 02:41:08;;;;;;;;;;;15.50;71.70;;;15.80;46.92;98358.94;4914124;28;114123;-84
2023/04/28 02:43:40;;;;;;;;;;;15.50;71.80;;;15.82;47.01;98356.59;4914182;28;113830;-85
2023/04/28 02:46:06;;;;;;;;;;;15.50;72.00;;;15.83;47.02;98363.78;4912617;28;125314;-83
2023/04/28 02:48:34;;;;;;;;;;;15.50;72.10;;;15.83;47.06;98368.56;4897717;28;123667;-84
2023/04/28 02:51:04;;;;;;;;;;;15.50;72.30;;;15.84;47.20;98373.75;4900669;28;114867;-83
2023/04/28 02:53:30;;;;;;;;;;;15.50;72.40;;;15.84;47.09;98370.97;4909465;28;114690;-84
2023/04/28 02:55:56;;;;;;;;;;;15.50;72.30;;;15.85;47.17;98372.59;4914099;28;124163;-84
2023/04/28 02:58:25;;;;;;;;;;;15.50;72.40;;;15.85;47.12;98372.59;4911900;28;124290;-86
2023/04/28 03:00:52;;;;;;;;;;;15.50;72.50;;;15.86;47.31;98390.94;4903902;28;114677;-84
2023/04/28 03:03:19;;;;;;;;;;;15.50;72.50;;;15.87;47.13;98381.41;4907947;28;113074;-85
2023/04/28 03:05:49;;;;;;;;;;;15.50;72.60;;;15.88;47.29;98380.25;4928959;28;123731;-84
2023/04/28 03:08:15;;;;;;;;;;;15.50;72.80;;;15.88;47.35;98376.66;4913332;28;124636;-86
2023/04/28 03:10:49;;;;;;;;;;;15.50;72.80;;;15.88;47.63;98383.03;4911978;28;114411;-85
2023/04/28 03:13:15;;;;;;;;;;;15.50;73.10;;;15.90;47.71;98377.91;4913182;28;113756;-84
2023/04/28 03:15:41;;;;;;;;;;;15.50;73.40;;;15.90;48.04;98375.13;4910120;28;124142;-85
2023/04/28 03:18:15;;;;;;;;;;;15.50;73.60;;;15.92;48.20;98371.16;4912775;28;124407;-86
2023/04/28 03:20:49;;;;;;;;;;;15.50;73.90;;;15.92;48.22;98376.75;4914122;28;113922;-86
2023/04/28 03:23:17;;;;;;;;;;;15.60;74.30;;;15.90;48.39;98372.34;4912860;28;113781;-86
2023/04/28 03:25:43;;;;;;;;;;;15.50;74.50;;;15.90;48.91;98365.94;4912714;28;124598;-86
2023/04/28 03:28:13;;;;;;;;;;;15.50;74.80;;;15.92;48.56;98360.03;4901996;28;124372;-85
2023/04/28 03:30:42;;;;;;;;;;;15.60;74.90;;;15.90;48.50;98372.34;4912514;28;114415;-84
2023/04/28 03:33:09;;;;;;;;;;;15.50;74.70;;;15.91;48.08;98364.78;4916765;28;113279;-87
2023/04/28 03:35:38;;;;;;;;;;;15.50;74.60;;;15.92;48.19;98354.44;4911442;28;124267;-84
2023/04/28 03:38:05;;;;;;;;;;;15.50;74.60;;;15.94;48.43;98361.28;4911778;28;125000;-86
2023/04/28 03:40:32;;;;;;;;;;;15.50;74.60;;;15.94;48.38;98360.47;4911656;28;115504;-85
2023/04/28 03:43:07;;;;;;;;;;;15.60;74.80;;;15.93;48.58;98356.84;4912252;28;114533;-81
2023/04/28 03:45:33;;;;;;;;;;;15.60;75.20;;;15.95;48.74;98364.88;4926920;28;124105;-86
2023/04/28 03:48:02;;;;;;;;;;;16.90;76.60;;;15.91;48.67;98359.22;4897126;28;123970;-86
2023/04/28 03:50:28;;;;;;;;;;;15.60;75.80;;;15.89;49.20;98356.78;4912973;28;114148;-87
2023/04/28 03:52:57;;;;;;;;;;;15.50;76.10;;;15.85;49.71;98355.91;4910885;28;114385;-83
2023/04/28 03:55:26;;;;;;;;;;;15.50;76.20;;;15.85;49.95;98355.91;4914242;28;123881;-85
2023/04/28 03:57:52;;;;;;;;;;;15.50;76.70;;;15.82;49.76;98351.00;4910495;28;123576;-84
2023/04/28 04:00:18;;;;;;;;;;;15.50;76.80;;;15.85;49.87;98346.69;4908274;28;114992;-84
2023/04/28 04:02:45;;;;;;;;;;;15.50;77.00;;;15.82;50.04;98339.88;4908481;28;113577;-85
2023/04/28 04:05:14;;;;;;;;;;;15.50;77.20;;;15.84;49.99;98342.31;4911038;28;124882;-84
2023/04/28 04:07:50;;;;;;;;;;;15.50;77.50;;;15.84;50.28;98345.91;4911030;28;123650;-84
2023/04/28 04:10:16;;;;;;;;;;;15.50;77.70;;;15.85;50.30;98343.91;4911921;28;114881;-85
2023/04/28 04:12:44;;;;;;;;;;;15.50;77.90;;;15.84;50.61;98343.13;4911856;28;113897;-84
2023/04/28 04:15:16;;;;;;;;;;;15.50;78.10;;;15.84;50.40;98340.31;4896744;28;122340;-85
2023/04/28 04:17:43;;;;;;;;;;;15.50;78.20;;;15.83;50.53;98341.50;4911511;28;124553;-84
2023/04/28 04:20:14;;;;;;;;;;;15.50;78.20;;;15.85;50.57;98341.97;4912776;28;114702;-84
2023/04/28 04:22:40;;;;;;;;;;;15.50;78.40;;;15.84;50.27;98337.53;4911416;28;114081;-84
2023/04/28 04:25:09;;;;;;;;;;;15.50;78.40;;;15.86;50.26;98339.97;4914438;28;124124;-84
2023/04/28 04:27:43;;;;;;;;;;;15.50;78.50;;;15.84;50.47;98329.19;4910429;28;122759;-84
2023/04/28 04:30:12;;;;;;;;;;;15.50;78.60;;;15.85;50.58;98333.59;4900800;28;115447;-83
2023/04/28 04:32:38;;;;;;;;;;;15.50;78.70;;;15.86;50.63;98332.44;4913248;28;115069;-84
2023/04/28 04:35:05;;;;;;;;;;;15.50;79.60;;;15.86;50.71;98335.22;4911729;28;124140;-85
2023/04/28 04:37:32;;;;;;;;;;;15.50;79.10;;;15.87;50.97;98339.59;4912450;28;122753;-85
2023/04/28 04:40:06;;;;;;;;;;;15.50;79.30;;;15.86;50.94;98338.00;4910439;28;114614;-85
2023/04/28 04:42:32;;;;;;;;;;;15.50;79.30;;;15.85;50.83;98333.59;4912744;28;112620;-83
2023/04/28 04:44:58;;;;;;;;;;;15.50;79.40;;;15.85;51.14;98333.59;4910349;28;125406;-85
2023/04/28 04:47:27;;;;;;;;;;;15.80;79.80;;;15.86;51.01;98334.41;4904611;28;124512;-83
2023/04/28 04:49:55;;;;;;;;;;;15.50;79.80;;;15.87;51.21;98327.66;4906552;28;113538;-85
2023/04/28 04:52:22;;;;;;;;;;;15.50;80.00;;;15.88;51.50;98332.88;4899411;28;114304;-85
2023/04/28 04:54:49;;;;;;;;;;;15.50;80.20;;;15.88;51.16;98320.94;4908126;28;124571;-84
2023/04/28 04:57:21;;;;;;;;;;;15.50;80.30;;;15.88;51.46;98332.06;4891388;28;124132;-86
2023/04/28 04:59:48;;;;;;;;;;;15.50;80.60;;;15.88;51.57;98326.50;4897151;28;114441;-86
2023/04/28 05:02:14;;;;;;;;;;;15.50;80.80;;;15.90;51.78;98333.34;4917579;28;112069;-85
2023/04/28 05:04:43;;;;;;;;;;;15.50;81.10;;;15.90;51.92;98324.16;4898277;28;124264;-85
2023/04/28 05:07:12;;;;;;;;;;;15.50;81.40;;;15.90;52.33;98329.72;4898098;28;123802;-84
2023/04/28 05:09:47;;;;;;;;;;;15.50;81.70;;;15.89;52.46;98323.34;4892892;28;114698;-84
2023/04/28 05:12:14;;;;;;;;;;;15.60;82.20;;;15.87;52.80;98330.44;4905469;28;113836;-85
2023/04/28 05:14:42;;;;;;;;;;;15.50;82.90;;;15.85;52.88;98329.97;4901996;28;124842;-85
2023/04/28 05:17:11;;;;;;;;;;;15.50;82.90;;;15.84;52.73;98339.53;4898345;28;124601;-85
2023/04/28 05:19:38;;;;;;;;;;;15.50;83.20;;;15.79;53.13;98335.03;4911646;28;114563;-86
2023/04/28 05:22:06;;;;;;;;;;;15.40;83.20;;;15.75;53.40;98331.34;4892906;28;115225;-85
2023/04/28 05:24:34;;;;;;;;;;;15.40;83.80;;;15.71;53.73;98330.44;4911713;28;124595;-85
2023/04/28 05:27:00;;;;;;;;;;;15.40;84.30;;;15.66;54.18;98341.81;4904893;28;123403;-84
2023/04/28 05:29:32;;;;;;;;;;;15.40;84.70;;;15.65;54.68;98329.84;4901103;28;114510;-85
2023/04/28 05:31:59;;;;;;;;;;;15.30;85.70;;;15.62;55.38;98335.34;4890756;28;115427;-85
2023/04/28 05:34:26;;;;;;;;;;;14.90;86.20;;;15.60;55.29;98338.47;4915855;28;123005;-83
2023/04/28 05:36:55;;;;;;;;;;;15.30;86.90;;;15.59;55.73;98341.63;4899403;28;123975;-84
2023/04/28 05:39:22;;;;;;;;;;;15.30;87.70;;;15.58;55.85;98335.25;4899932;28;114863;-87
2023/04/28 05:41:48;;;;;;;;;;;15.30;88.10;;;15.58;56.12;98340.84;4907551;28;113964;-89
2023/04/28 05:44:20;;;;;;;;;;;15.30;88.40;;;15.60;56.34;98343.25;4913042;28;124675;-87
2023/04/28 05:46:48;;;;;;;;;;;15.30;88.70;;;15.61;56.22;98339.31;4912046;28;124295;-87
2023/04/28 05:49:19;;;;;;;;;;;15.30;89.20;;;15.63;56.44;98334.16;4912949;28;114178;-88
2023/04/28 05:51:49;;;;;;;;;;;15.20;89.30;;;15.64;56.46;98339.38;4894234;28;112332;-87
2023/04/28 05:54:20;;;;;;;;;;;15.30;89.80;;;15.65;56.39;98334.63;4894899;28;124247;-87
2023/04/28 05:56:47;;;;;;;;;;;15.30;90.00;;;15.66;56.92;98327.88;4919035;28;122868;-87
2023/04/28 05:59:20;;;;;;;;;;;15.30;90.20;;;15.64;56.94;98331.03;4910016;28;113758;-87
2023/04/28 06:01:49;;;;;;;;;;;15.30;90.40;;;15.64;56.89;98328.25;4911108;28;113733;-88
2023/04/28 06:04:18;;;;;;;;;;;15.30;90.40;;;15.66;57.10;98330.66;4897075;28;122540;-87
2023/04/28 06:06:47;;;;;;;;;;;15.30;90.60;;;15.66;57.15;98331.50;4911010;28;123315;-88
2023/04/28 06:09:14;;;;;;;;;;;15.30;90.90;;;15.64;57.61;98327.44;4909097;28;115345;-90
2023/04/28 06:11:43;;;;;;;;;;;15.30;91.00;;;15.64;57.64;98333.03;4907606;28;114442;-88
2023/04/28 06:14:10;;;;;;;;;;;15.30;91.00;;;15.63;57.62;98323.03;4909273;28;124875;-88
2023/04/28 06:16:38;;;;;;;;;;;15.30;91.00;;;15.60;58.15;98323.75;4911777;28;124042;-84
2023/04/28 06:19:06;;;;;;;;;;;15.20;91.50;;;15.58;58.35;98328.84;4912650;28;114100;-86
2023/04/28 06:21:34;;;;;;;;;;;15.30;91.50;;;15.60;58.36;98329.31;4914663;28;113804;-88
2023/04/28 06:24:00;;;;;;;;;;;15.20;91.50;;;15.59;58.15;98330.50;4909428;28;124951;-86
2023/04/28 06:26:35;;;;;;;;;;;15.30;91.70;;;15.62;58.43;98329.78;4919333;28;124333;-89
2023/04/28 06:29:02;;;;;;;;;;;15.30;91.80;;;15.62;58.19;98327.78;4909347;28;114469;-88
2023/04/28 06:31:31;;;;;;;;;;;15.30;91.90;;;15.65;58.81;98323.50;4907084;28;113090;-88
2023/04/28 06:33:57;;;;;;;;;;;15.30;92.20;;;15.62;58.87;98319.44;4905969;28;124533;-88
2023/04/28 06:36:24;;;;;;;;;;;15.30;92.30;;;15.64;58.90;98317.13;4908298;28;123820;-86
2023/04/28 06:38:50;;;;;;;;;;;15.30;92.30;;;15.64;59.12;98324.66;4920106;28;114608;-89
2023/04/28 06:41:20;;;;;;;;;;;15.30;92.60;;;15.62;59.85;98313.06;4895243;28;113282;-87
2023/04/28 06:43:46;;;;;;;;;;;15.30;92.90;;;15.59;59.65;98313.78;4898226;28;124394;-88
2023/04/28 06:46:12;;;;;;;;;;;15.30;92.80;;;15.61;59.78;98311.47;4901706;28;124646;-88
2023/04/28 06:48:38;;;;;;;;;;;15.30;92.90;;;15.64;59.51;98313.53;4922417;28;114168;-88
2023/04/28 06:51:08;;;;;;;;;;;15.30;92.90;;;15.64;59.82;98305.16;4912350;28;113094;-87
2023/04/28 06:53:34;;;;;;;;;;;15.30;93.20;;;15.65;59.77;98306.78;4913393;28;124895;-89
2023/04/28 06:56:13;;;;;;;;;;;15.30;93.10;;;15.69;59.60;98299.38;4913954;28;124113;-89
2023/04/28 06:58:43;;;;;;;;;;;15.30;93.20;;;15.70;59.78;98309.31;4914358;28;115732;-90
2023/04/28 07:01:10;;;;;;;;;;;15.30;93.20;;;15.72;59.54;98308.97;4916128;28;114110;-90
2023/04/28 07:03:37;;;;;;;;;;;15.40;93.30;;;15.74;59.69;98298.28;4911663;28;124761;-92
2023/04/28 07:06:12;;;;;;;;;;;15.40;93.30;;;15.77;59.48;98298.38;4912023;28;124669;-91
2023/04/28 07:08:39;;;;;;;;;;;15.40;93.40;;;15.79;59.78;98292.44;4899265;28;114357;-89
2023/04/28 07:11:07;;;;;;;;;;;15.40;93.50;;;15.77;59.98;98298.38;4919664;28;113823;-89
2023/04/28 07:13:33;;;;;;;;;;;16.90;94.20;;;15.76;60.11;98290.38;4927177;28;124830;-91
2023/04/28 07:16:00;;;;;;;;;;;15.40;93.60;;;15.76;59.84;98296.75;4912184;28;125044;-89
2023/04/28 07:18:27;;;;;;;;;;;15.40;93.60;;;15.77;60.10;98287.25;4892252;28;114042;-88
2023/04/28 07:20:58;;;;;;;;;;;15.40;93.70;;;15.80;60.05;98285.72;4913596;28;113387;-89
2023/04/28 07:23:25;;;;;;;;;;;15.40;93.70;;;15.81;60.10;98288.13;4894355;28;123904;-88
2023/04/28 07:25:54;;;;;;;;;;;15.40;93.90;;;15.81;60.08;98293.69;4910717;28;122999;-87
2023/04/28 07:28:21;;;;;;;;;;;15.40;93.90;;;15.82;60.17;98278.59;4906089;28;113652;-88
2023/04/28 07:30:47;;;;;;;;;;;15.40;93.90;;;15.84;60.15;98281.03;4907958;28;113227;-89
2023/04/28 07:33:13;;;;;;;;;;;15.40;93.90;;;15.87;60.01;98274.72;4913031;28;124294;-88
2023/04/28 07:35:42;;;;;;;;;;;15.50;94.10;;;15.88;60.20;98273.56;4912984;28;123611;-88
2023/04/28 07:38:13;;;;;;;;;;;15.50;94.20;;;15.88;60.20;98279.16;4895458;28;113314;-88
2023/04/28 07:40:44;;;;;;;;;;;15.50;94.10;;;15.88;60.50;98277.16;4910749;28;113351;-91
2023/04/28 07:43:12;;;;;;;;;;;15.50;94.20;;;15.90;60.33;98272.03;4914989;28;124206;-90
2023/04/28 07:45:44;;;;;;;;;;;15.50;94.20;;;15.92;60.45;98279.22;4896246;28;123363;-89
2023/04/28 07:48:11;;;;;;;;;;;15.60;94.20;;;15.93;60.44;98280.81;4926530;28;116029;-90
2023/04/28 07:50:41;;;;;;;;;;;15.60;94.30;;;15.94;60.33;98269.34;4912218;28;115072;-88
2023/04/28 07:53:07;;;;;;;;;;;15.60;94.40;;;15.97;60.48;98268.59;4912493;28;124194;-88
2023/04/28 07:55:34;;;;;;;;;;;15.60;94.40;;;16.01;60.91;98268.69;4911976;28;123631;-91
2023/04/28 07:58:00;;;;;;;;;;;15.60;94.60;;;16.02;60.90;98270.31;4909465;28;114449;-89
2023/04/28 08:00:29;;;;;;;;;;;15.70;94.70;;;16.06;61.28;98285.13;4904161;28;114130;-89
2023/04/28 08:02:56;;;;;;;;;;;15.60;94.80;;;16.04;61.46;98287.47;4897062;28;123677;-90
2023/04/28 08:05:22;;;;;;;;;;;15.60;95.10;;;16.01;61.79;98290.97;4910277;28;124530;-89
2023/04/28 08:07:53;;;;;;;;;;;15.60;95.20;;;16.00;62.56;98294.94;4911454;28;114064;-89
2023/04/28 08:10:20;;;;;;;;;;;15.60;95.60;;;15.97;62.82;98301.25;4913333;28;113426;-90
2023/04/28 08:12:46;;;;;;;;;;;15.60;95.90;;;15.93;63.49;98298.34;4908611;28;124330;-90
2023/04/28 08:15:12;;;;;;;;;;;15.60;96.30;;;15.89;64.00;98301.06;4900316;28;123850;-90
2023/04/28 08:17:46;;;;;;;;;;;15.60;96.40;;;15.89;64.00;98309.41;4907278;28;114683;-88
2023/04/28 08:20:14;;;;;;;;;;;15.60;96.60;;;15.87;64.31;98303.38;4913261;28;114284;-89
2023/04/28 08:22:43;;;;;;;;;;;15.50;96.90;;;15.82;64.53;98309.22;4888386;28;123468;-88
2023/04/28 08:25:12;;;;;;;;;;;15.00;96.70;;;15.80;64.81;98314.38;4907506;28;122344;-88
2023/04/28 08:27:42;;;;;;;;;;;15.50;97.10;;;15.81;64.91;98338.25;4909769;28;114710;-90
2023/04/28 08:30:12;;;;;;;;;;;15.50;97.20;;;15.83;65.14;98340.69;4916293;28;112980;-90
2023/04/28 08:32:47;;;;;;;;;;;15.50;97.30;;;15.85;64.98;98350.31;4901380;28;124625;-90
2023/04/28 08:35:18;;;;;;;;;;;15.50;97.40;;;15.87;65.92;98349.94;4904804;28;124341;-89
2023/04/28 08:37:48;;;;;;;;;;;15.50;98.10;;;15.80;66.21;98344.22;4897251;28;114514;-88
2023/04/28 08:40:17;;;;;;;;;;;15.40;98.50;;;15.68;66.51;98345.88;4897536;28;114202;-89
2023/04/28 08:42:46;;;;;;;;;;;15.40;98.50;;;15.61;66.59;98342.09;4911444;28;122368;-90
2023/04/28 08:45:19;;;;;;;;;;;15.30;98.50;;;15.54;66.85;98342.69;4906887;28;123180;-89
2023/04/28 08:47:56;;;;;;;;;;;15.30;98.70;;;15.44;67.87;98346.78;4888894;28;113906;-88
2023/04/28 08:50:25;;;;;;;;;;;15.20;99.20;;;15.42;67.66;98351.09;4885504;28;112711;-88
2023/04/28 08:52:55;;;;;;;;;;;15.20;99.10;;;15.43;67.59;98355.53;4901315;28;124373;-90
2023/04/28 08:55:23;;;;;;;;;;;15.20;99.10;;;15.45;67.25;98370.72;4913050;28;123131;-90
2023/04/28 08:57:56;;;;;;;;;;;15.20;99.00;;;15.52;67.20;98358.13;4898918;28;113465;-91
2023/04/28 09:00:23;;;;;;;;;;;15.20;99.00;;;15.57;67.05;98374.59;4895794;28;112026;-89
2023/04/28 09:02:53;;;;;;;;;;;15.20;99.00;;;15.61;66.75;98362.38;4905723;28;124546;-87
2023/04/28 09:05:19;;;;;;;;;;;15.30;99.00;;;15.66;66.75;98361.28;4896577;28;123744;-89
2023/04/28 09:07:46;;;;;;;;;;;15.30;99.00;;;15.71;66.85;98369.41;4909682;28;114389;-87
2023/04/28 09:10:18;;;;;;;;;;;15.30;99.10;;;15.71;66.89;98366.63;4911489;28;113856;-89
2023/04/28 09:12:44;;;;;;;;;;;15.40;99.20;;;15.66;67.23;98370.50;4907531;28;124949;-89
2023/04/28 09:15:36;;;;;;;;;;;15.10;99.30;;;15.62;67.20;98369.56;4914572;28;123098;-88
2023/04/28 09:18:06;;;;;;;;;;;15.30;99.30;;;15.60;67.44;98362.72;4909851;28;114402;-87
2023/04/28 09:20:34;;;;;;;;;;;15.30;99.30;;;15.63;67.35;98364.81;4912569;28;114224;-88
2023/04/28 09:23:20;;;;;;;;;;;15.30;99.30;;;15.66;67.13;98369.66;4911861;28;124332;-88
2023/04/28 09:25:56;;;;;;;;;;;15.30;99.30;;;15.74;66.98;98371.50;4909011;28;124336;-89
2023/04/28 09:28:30;;;;;;;;;;;15.40;99.40;;;15.79;66.91;98371.22;4911679;28;114917;-89
2023/04/28 09:30:58;;;;;;;;;;;15.40;99.40;;;15.85;67.01;98367.03;4898973;28;114623;-90
2023/04/28 09:33:24;;;;;;;;;;;15.50;99.50;;;15.87;66.68;98375.81;4911239;28;123805;-89
2023/04/28 09:35:53;;;;;;;;;;;15.50;99.50;;;15.93;67.11;98375.56;4910603;28;124135;-91
2023/04/28 09:38:21;;;;;;;;;;;15.50;99.60;;;15.97;66.96;98374.50;4903301;28;113741;-89
2023/04/28 09:40:58;;;;;;;;;;;15.60;99.70;;;16.03;66.94;98366.66;4924147;28;113506;-89
2023/04/28 09:43:32;;;;;;;;;;;15.60;99.70;;;16.11;66.68;98369.28;4921527;28;124189;-89
2023/04/28 09:46:00;;;;;;;;;;;15.70;99.80;;;16.17;66.60;98366.22;4909545;28;123799;-89
2023/04/28 09:48:29;;;;;;;;;;;15.70;99.80;;;16.25;66.53;98366.03;4913226;28;113492;-85
2023/04/28 09:50:56;;;;;;;;;;;17.30;99.90;;;16.33;66.54;98358.66;4928128;28;112935;-85
2023/04/28 09:53:23;;;;;;;;;;;15.80;99.80;;;16.41;66.52;98351.25;4908518;28;124046;-88
2023/04/28 09:55:54;;;;;;;;;;;15.90;99.90;;;16.52;66.37;98360.69;4905574;28;124537;-84
2023/04/28 09:58:23;;;;;;;;;;;16.00;99.90;;;16.62;66.43;98354.56;4909284;28;114250;-88
2023/04/28 10:00:57;;;;;;;;;;;15.70;99.90;;;16.71;66.52;98355.19;4903527;28;113960;-86
2023/04/28 10:03:30;;;;;;;;;;;16.10;99.90;;;16.79;66.72;98356.16;4905528;28;124134;-86
2023/04/28 10:05:57;;;;;;;;;;;16.20;99.90;;;16.84;66.71;98355.06;4918005;28;124169;-86
2023/04/28 10:08:30;;;;;;;;;;;16.20;99.90;;;16.93;66.54;98364.06;4916018;28;114674;-87
2023/04/28 10:10:57;;;;;;;;;;;16.30;99.90;;;17.04;66.61;98362.28;4896160;28;113466;-86
2023/04/28 10:13:23;;;;;;;;;;;16.40;99.90;;;17.14;66.70;98353.34;4909264;28;124374;-87
2023/04/28 10:15:56;;;;;;;;;;;16.50;99.90;;;17.18;66.84;98343.03;4893353;28;123960;-86
2023/04/28 10:18:23;;;;;;;;;;;16.50;99.90;;;17.19;67.11;98355.84;4893639;28;115455;-87
2023/04/28 10:20:57;;;;;;;;;;;16.60;99.90;;;17.24;66.63;98346.34;4911212;28;114837;-85
2023/04/28 10:23:46;;;;;;;;;;;16.70;99.90;;;17.32;66.68;98341.72;4910919;28;123408;-82
2023/04/28 10:26:19;;;;;;;;;;;16.70;99.90;;;17.44;66.84;98349.94;4904668;28;124035;-87
2023/04/28 10:28:53;;;;;;;;;;;16.80;99.90;;;17.54;66.72;98343.72;4905436;28;114433;-88
2023/04/28 10:31:21;;;;;;;;;;;16.90;99.90;;;17.63;66.92;98333.16;4905499;28;113954;-89
2023/04/28 10:34:23;;;;;;;;;;;17.10;99.90;;;17.71;66.64;98339.69;4910684;28;118248;-88
2023/04/28 10:36:54;;;;;;;;;;;17.10;99.90;;;17.79;66.73;98337.84;4899324;28;124069;-88
2023/04/28 10:39:20;;;;;;;;;;;17.10;99.90;;;17.83;66.87;98338.72;4928304;28;113698;-88
2023/04/28 10:41:47;;;;;;;;;;;17.20;99.90;;;17.91;67.04;98339.66;4910984;28;112844;-89
2023/04/28 10:44:28;;;;;;;;;;;17.30;99.90;;;17.98;67.12;98348.97;4904740;28;124883;-88
2023/04/28 10:47:21;;;;;;;;;;;17.40;99.90;;;18.01;66.92;98344.63;4908524;28;126454;-88
2023/04/28 10:49:59;;;;;;;;;;;17.50;99.90;;;18.08;67.07;98353.94;4887042;28;113755;-88
2023/04/28 10:52:31;;;;;;;;;;;17.50;99.90;;;18.13;66.92;98355.59;4891087;28;113625;-88
2023/04/28 10:55:33;;;;;;;;;;;17.60;99.90;;;18.17;66.96;98358.47;4892564;28;125599;-90
2023/04/28 10:58:28;;;;;;;;;;;17.60;99.90;;;18.24;66.88;98352.97;4890057;28;123843;-89
2023/04/28 11:00:54;;;;;;;;;;;17.70;99.90;;;18.30;66.68;98349.50;4900365;28;114164;-89
2023/04/28 11:03:40;;;;;;;;;;;17.80;99.90;;;18.36;66.44;98346.38;4901042;28;114098;-88
2023/04/28 11:06:31;;;;;;;;;;;17.80;99.90;;;18.44;65.93;98348.91;4899159;28;123971;-89
2023/04/28 11:09:04;;;;;;;;;;;17.90;99.90;;;18.52;65.79;98342.25;4899051;28;124619;-90
2023/04/28 11:11:33;;;;;;;;;;;18.00;99.90;;;18.60;65.68;98345.16;4895902;28;115213;-89
2023/04/28 11:14:19;;;;;;;;;;;18.00;99.90;;;18.68;65.42;98336.47;4877765;28;114524;-89
2023/04/28 11:17:07;;;;;;;;;;;18.10;99.90;;;18.75;65.15;98338.59;4890715;28;124526;-88
2023/04/28 11:19:42;;;;;;;;;;;18.20;99.90;;;18.81;64.41;98348.28;4887675;28;124262;-88
2023/04/28 11:22:19;;;;;;;;;;;18.30;99.90;;;18.83;64.39;98329.09;4878476;28;113519;-88